sensor_id;sensor_type;location;lat;lon;timestamp;P1;durP1;ratioP1;P2;durP2;ratioP2
13291;SDS011;6714;53.056;8.690;2022-10-17T00:02:32;5.60;;;4.30;;
13291;SDS011;6714;53.056;8.690;2022-10-17T00:05:15;6.87;;;4.53;;
13291;SDS011;6714;53.056;8.690;2022-10-17T00:07:57;4.30;;;3.93;;
13291;SDS011;6714;53.056;8.690;2022-10-17T00:10:40;6.63;;;4.40;;
13291;SDS011;6714;53.056;8.690;2022-10-17T00:13:24;4.73;;;4.20;;
13291;SDS011;6714;53.056;8.690;2022-10-17T00:16:07;4.67;;;4.17;;
13291;SDS011;6714;53.056;8.690;2022-10-17T00:18:49;5.00;;;3.67;;
13291;SDS011;6714;53.056;8.690;2022-10-17T00:21:31;4.57;;;3.70;;
13291;SDS011;6714;53.056;8.690;2022-10-17T00:24:13;4.67;;;3.83;;
13291;SDS011;6714;53.056;8.690;2022-10-17T00:26:57;6.33;;;3.90;;
13291;SDS011;6714;53.056;8.690;2022-10-17T00:29:39;5.60;;;4.20;;
13291;SDS011;6714;53.056;8.690;2022-10-17T00:32:21;4.47;;;4.03;;
13291;SDS011;6714;53.056;8.690;2022-10-17T00:35:03;6.10;;;4.00;;
13291;SDS011;6714;53.056;8.690;2022-10-17T00:37:46;4.00;;;3.70;;
13291;SDS011;6714;53.056;8.690;2022-10-17T00:40:28;6.20;;;4.00;;
13291;SDS011;6714;53.056;8.690;2022-10-17T00:43:12;3.40;;;3.10;;
13291;SDS011;6714;53.056;8.690;2022-10-17T00:45:56;4.33;;;3.63;;
13291;SDS011;6714;53.056;8.690;2022-10-17T00:48:38;6.27;;;4.30;;
13291;SDS011;6714;53.056;8.690;2022-10-17T00:51:22;3.97;;;3.27;;
13291;SDS011;6714;53.056;8.690;2022-10-17T00:54:06;3.50;;;3.17;;
13291;SDS011;6714;53.056;8.690;2022-10-17T00:56:49;3.43;;;3.10;;
13291;SDS011;6714;53.056;8.690;2022-10-17T00:59:33;4.77;;;3.43;;
13291;SDS011;6714;53.056;8.690;2022-10-17T01:02:18;3.97;;;3.50;;
13291;SDS011;6714;53.056;8.690;2022-10-17T01:05:00;4.23;;;3.53;;
13291;SDS011;6714;53.056;8.690;2022-10-17T01:07:43;4.10;;;3.70;;
13291;SDS011;6714;53.056;8.690;2022-10-17T01:10:27;4.37;;;3.60;;
13291;SDS011;6714;53.056;8.690;2022-10-17T01:13:12;6.27;;;3.73;;
13291;SDS011;6714;53.056;8.690;2022-10-17T01:15:58;4.73;;;3.53;;
13291;SDS011;6714;53.056;8.690;2022-10-17T01:18:47;4.70;;;3.70;;
13291;SDS011;6714;53.056;8.690;2022-10-17T01:21:37;5.57;;;3.90;;
13291;SDS011;6714;53.056;8.690;2022-10-17T01:27:26;4.93;;;3.90;;
13291;SDS011;6714;53.056;8.690;2022-10-17T01:33:09;3.90;;;3.60;;
13291;SDS011;6714;53.056;8.690;2022-10-17T01:35:54;4.07;;;3.50;;
13291;SDS011;6714;53.056;8.690;2022-10-17T01:38:40;4.33;;;3.97;;
13291;SDS011;6714;53.056;8.690;2022-10-17T01:41:24;3.60;;;3.40;;
13291;SDS011;6714;53.056;8.690;2022-10-17T01:44:09;4.20;;;3.80;;
13291;SDS011;6714;53.056;8.690;2022-10-17T01:46:53;4.00;;;3.70;;
13291;SDS011;6714;53.056;8.690;2022-10-17T01:49:37;5.00;;;3.67;;
13291;SDS011;6714;53.056;8.690;2022-10-17T01:52:21;4.30;;;3.87;;
13291;SDS011;6714;53.056;8.690;2022-10-17T01:55:05;3.57;;;3.37;;
13291;SDS011;6714;53.056;8.690;2022-10-17T01:57:49;4.20;;;3.90;;
13291;SDS011;6714;53.056;8.690;2022-10-17T02:00:32;5.20;;;3.47;;
13291;SDS011;6714;53.056;8.690;2022-10-17T02:03:17;5.10;;;4.10;;
13291;SDS011;6714;53.056;8.690;2022-10-17T02:06:01;5.23;;;3.63;;
13291;SDS011;6714;53.056;8.690;2022-10-17T02:08:44;4.07;;;3.70;;
13291;SDS011;6714;53.056;8.690;2022-10-17T02:11:27;4.40;;;4.00;;
13291;SDS011;6714;53.056;8.690;2022-10-17T02:14:12;6.53;;;3.80;;
13291;SDS011;6714;53.056;8.690;2022-10-17T02:17:02;3.83;;;3.43;;
13291;SDS011;6714;53.056;8.690;2022-10-17T02:19:49;4.27;;;3.97;;
13291;SDS011;6714;53.056;8.690;2022-10-17T02:22:39;4.60;;;4.20;;
13291;SDS011;6714;53.056;8.690;2022-10-17T02:25:25;4.10;;;3.80;;
13291;SDS011;6714;53.056;8.690;2022-10-17T02:28:13;4.33;;;4.03;;
13291;SDS011;6714;53.056;8.690;2022-10-17T02:30:59;4.80;;;4.00;;
13291;SDS011;6714;53.056;8.690;2022-10-17T02:33:42;4.40;;;4.00;;
13291;SDS011;6714;53.056;8.690;2022-10-17T02:36:28;4.50;;;4.10;;
13291;SDS011;6714;53.056;8.690;2022-10-17T02:39:12;3.70;;;3.30;;
13291;SDS011;6714;53.056;8.690;2022-10-17T02:41:55;4.23;;;3.40;;
13291;SDS011;6714;53.056;8.690;2022-10-17T02:44:38;4.20;;;3.80;;
13291;SDS011;6714;53.056;8.690;2022-10-17T02:47:22;3.90;;;3.50;;
13291;SDS011;6714;53.056;8.690;2022-10-17T02:50:06;3.30;;;3.10;;
13291;SDS011;6714;53.056;8.690;2022-10-17T02:52:50;4.40;;;3.97;;
13291;SDS011;6714;53.056;8.690;2022-10-17T02:55:35;6.60;;;3.67;;
13291;SDS011;6714;53.056;8.690;2022-10-17T02:58:20;4.10;;;3.70;;
13291;SDS011;6714;53.056;8.690;2022-10-17T03:01:04;4.80;;;3.43;;
13291;SDS011;6714;53.056;8.690;2022-10-17T03:03:47;3.63;;;3.33;;
13291;SDS011;6714;53.056;8.690;2022-10-17T03:06:29;3.90;;;3.10;;
13291;SDS011;6714;53.056;8.690;2022-10-17T03:09:11;3.90;;;3.60;;
13291;SDS011;6714;53.056;8.690;2022-10-17T03:11:55;3.37;;;3.17;;
13291;SDS011;6714;53.056;8.690;2022-10-17T03:14:37;3.53;;;3.23;;
13291;SDS011;6714;53.056;8.690;2022-10-17T03:17:19;4.23;;;3.87;;
13291;SDS011;6714;53.056;8.690;2022-10-17T03:20:02;4.23;;;3.83;;
13291;SDS011;6714;53.056;8.690;2022-10-17T03:22:44;3.63;;;3.43;;
13291;SDS011;6714;53.056;8.690;2022-10-17T03:25:26;3.80;;;3.50;;
13291;SDS011;6714;53.056;8.690;2022-10-17T03:28:10;3.60;;;3.30;;
13291;SDS011;6714;53.056;8.690;2022-10-17T03:30:52;4.50;;;4.00;;
13291;SDS011;6714;53.056;8.690;2022-10-17T03:33:34;4.60;;;4.20;;
13291;SDS011;6714;53.056;8.690;2022-10-17T03:36:17;4.63;;;4.10;;
13291;SDS011;6714;53.056;8.690;2022-10-17T03:39:00;3.90;;;3.60;;
13291;SDS011;6714;53.056;8.690;2022-10-17T03:41:42;4.37;;;3.93;;
13291;SDS011;6714;53.056;8.690;2022-10-17T03:44:25;3.73;;;3.43;;
13291;SDS011;6714;53.056;8.690;2022-10-17T03:47:07;3.73;;;3.43;;
13291;SDS011;6714;53.056;8.690;2022-10-17T03:49:50;4.47;;;4.07;;
13291;SDS011;6714;53.056;8.690;2022-10-17T03:52:33;4.27;;;3.93;;
13291;SDS011;6714;53.056;8.690;2022-10-17T03:55:15;5.00;;;4.60;;
13291;SDS011;6714;53.056;8.690;2022-10-17T03:57:57;5.30;;;3.97;;
13291;SDS011;6714;53.056;8.690;2022-10-17T04:00:41;4.83;;;3.87;;
13291;SDS011;6714;53.056;8.690;2022-10-17T04:03:23;5.00;;;4.57;;
13291;SDS011;6714;53.056;8.690;2022-10-17T04:06:06;4.70;;;4.30;;
13291;SDS011;6714;53.056;8.690;2022-10-17T04:08:48;4.37;;;4.00;;
13291;SDS011;6714;53.056;8.690;2022-10-17T04:11:30;5.97;;;4.37;;
13291;SDS011;6714;53.056;8.690;2022-10-17T04:14:13;4.60;;;4.20;;
13291;SDS011;6714;53.056;8.690;2022-10-17T04:16:56;5.87;;;4.33;;
13291;SDS011;6714;53.056;8.690;2022-10-17T04:19:38;4.97;;;4.53;;
13291;SDS011;6714;53.056;8.690;2022-10-17T04:22:20;5.50;;;4.57;;
13291;SDS011;6714;53.056;8.690;2022-10-17T04:25:03;5.03;;;4.63;;
13291;SDS011;6714;53.056;8.690;2022-10-17T04:27:45;4.77;;;4.37;;
13291;SDS011;6714;53.056;8.690;2022-10-17T04:30:28;5.43;;;4.93;;
13291;SDS011;6714;53.056;8.690;2022-10-17T04:33:11;4.47;;;4.17;;
13291;SDS011;6714;53.056;8.690;2022-10-17T04:35:54;4.90;;;4.57;;
13291;SDS011;6714;53.056;8.690;2022-10-17T04:38:36;4.93;;;4.03;;
13291;SDS011;6714;53.056;8.690;2022-10-17T04:41:19;4.50;;;4.10;;
13291;SDS011;6714;53.056;8.690;2022-10-17T04:44:01;5.43;;;5.03;;
13291;SDS011;6714;53.056;8.690;2022-10-17T04:46:43;5.87;;;4.63;;
13291;SDS011;6714;53.056;8.690;2022-10-17T04:49:27;4.50;;;4.17;;
13291;SDS011;6714;53.056;8.690;2022-10-17T04:52:09;4.80;;;4.37;;
13291;SDS011;6714;53.056;8.690;2022-10-17T04:54:51;5.10;;;4.60;;
13291;SDS011;6714;53.056;8.690;2022-10-17T04:57:33;4.67;;;4.30;;
13291;SDS011;6714;53.056;8.690;2022-10-17T05:00:16;5.33;;;4.80;;
13291;SDS011;6714;53.056;8.690;2022-10-17T05:02:58;4.73;;;4.40;;
13291;SDS011;6714;53.056;8.690;2022-10-17T05:05:42;4.70;;;4.30;;
13291;SDS011;6714;53.056;8.690;2022-10-17T05:08:24;5.17;;;4.27;;
13291;SDS011;6714;53.056;8.690;2022-10-17T05:11:13;4.97;;;4.53;;
13291;SDS011;6714;53.056;8.690;2022-10-17T05:13:57;5.03;;;4.30;;
13291;SDS011;6714;53.056;8.690;2022-10-17T05:16:39;4.70;;;4.27;;
13291;SDS011;6714;53.056;8.690;2022-10-17T05:19:21;4.77;;;4.37;;
13291;SDS011;6714;53.056;8.690;2022-10-17T05:22:05;5.53;;;4.90;;
13291;SDS011;6714;53.056;8.690;2022-10-17T05:24:47;4.97;;;4.57;;
13291;SDS011;6714;53.056;8.690;2022-10-17T05:27:29;4.97;;;4.57;;
13291;SDS011;6714;53.056;8.690;2022-10-17T05:30:12;4.83;;;4.43;;
13291;SDS011;6714;53.056;8.690;2022-10-17T05:32:54;5.07;;;4.67;;
13291;SDS011;6714;53.056;8.690;2022-10-17T05:35:36;5.23;;;4.77;;
13291;SDS011;6714;53.056;8.690;2022-10-17T05:38:20;5.70;;;5.00;;
13291;SDS011;6714;53.056;8.690;2022-10-17T05:41:02;5.03;;;4.57;;
13291;SDS011;6714;53.056;8.690;2022-10-17T05:43:45;4.33;;;4.03;;
13291;SDS011;6714;53.056;8.690;2022-10-17T05:46:27;5.93;;;4.97;;
13291;SDS011;6714;53.056;8.690;2022-10-17T05:49:09;5.40;;;4.37;;
13291;SDS011;6714;53.056;8.690;2022-10-17T05:51:51;5.37;;;4.87;;
13291;SDS011;6714;53.056;8.690;2022-10-17T05:54:35;5.30;;;4.90;;
13291;SDS011;6714;53.056;8.690;2022-10-17T05:57:17;5.60;;;5.10;;
13291;SDS011;6714;53.056;8.690;2022-10-17T05:59:59;6.73;;;5.53;;
13291;SDS011;6714;53.056;8.690;2022-10-17T06:02:42;5.40;;;4.90;;
13291;SDS011;6714;53.056;8.690;2022-10-17T06:05:24;6.23;;;5.30;;
13291;SDS011;6714;53.056;8.690;2022-10-17T06:08:07;6.70;;;4.63;;
13291;SDS011;6714;53.056;8.690;2022-10-17T06:10:50;7.07;;;4.77;;
13291;SDS011;6714;53.056;8.690;2022-10-17T06:13:32;5.50;;;5.10;;
13291;SDS011;6714;53.056;8.690;2022-10-17T06:16:14;5.20;;;4.70;;
13291;SDS011;6714;53.056;8.690;2022-10-17T06:18:57;5.17;;;4.67;;
13291;SDS011;6714;53.056;8.690;2022-10-17T06:21:39;5.80;;;5.30;;
13291;SDS011;6714;53.056;8.690;2022-10-17T06:24:21;5.00;;;4.70;;
13291;SDS011;6714;53.056;8.690;2022-10-17T06:27:04;8.23;;;5.43;;
13291;SDS011;6714;53.056;8.690;2022-10-17T06:29:47;6.30;;;5.70;;
13291;SDS011;6714;53.056;8.690;2022-10-17T06:32:30;4.80;;;4.40;;
13291;SDS011;6714;53.056;8.690;2022-10-17T06:35:12;5.87;;;5.33;;
13291;SDS011;6714;53.056;8.690;2022-10-17T06:37:54;8.70;;;5.67;;
13291;SDS011;6714;53.056;8.690;2022-10-17T06:40:36;5.30;;;4.80;;
13291;SDS011;6714;53.056;8.690;2022-10-17T06:43:20;6.63;;;5.50;;
13291;SDS011;6714;53.056;8.690;2022-10-17T06:46:02;5.83;;;5.10;;
13291;SDS011;6714;53.056;8.690;2022-10-17T06:48:44;5.20;;;4.70;;
13291;SDS011;6714;53.056;8.690;2022-10-17T06:51:27;5.83;;;5.30;;
13291;SDS011;6714;53.056;8.690;2022-10-17T06:54:09;5.97;;;5.37;;
13291;SDS011;6714;53.056;8.690;2022-10-17T06:56:51;6.90;;;6.30;;
13291;SDS011;6714;53.056;8.690;2022-10-17T06:59:34;4.90;;;4.50;;
13291;SDS011;6714;53.056;8.690;2022-10-17T07:02:17;6.40;;;5.83;;
13291;SDS011;6714;53.056;8.690;2022-10-17T07:04:59;7.17;;;6.47;;
13291;SDS011;6714;53.056;8.690;2022-10-17T07:07:41;5.77;;;5.17;;
13291;SDS011;6714;53.056;8.690;2022-10-17T07:10:24;6.73;;;6.13;;
13291;SDS011;6714;53.056;8.690;2022-10-17T07:13:07;6.80;;;6.20;;
13291;SDS011;6714;53.056;8.690;2022-10-17T07:15:50;6.77;;;6.17;;
13291;SDS011;6714;53.056;8.690;2022-10-17T07:18:36;6.43;;;5.70;;
13291;SDS011;6714;53.056;8.690;2022-10-17T07:21:19;7.87;;;6.77;;
13291;SDS011;6714;53.056;8.690;2022-10-17T07:24:01;6.87;;;6.27;;
13291;SDS011;6714;53.056;8.690;2022-10-17T07:26:43;7.77;;;6.67;;
13291;SDS011;6714;53.056;8.690;2022-10-17T07:29:25;5.40;;;5.00;;
13291;SDS011;6714;53.056;8.690;2022-10-17T07:32:09;5.70;;;5.30;;
13291;SDS011;6714;53.056;8.690;2022-10-17T07:34:51;5.27;;;4.83;;
13291;SDS011;6714;53.056;8.690;2022-10-17T07:37:33;5.80;;;5.30;;
13291;SDS011;6714;53.056;8.690;2022-10-17T07:40:16;5.27;;;4.77;;
13291;SDS011;6714;53.056;8.690;2022-10-17T07:42:58;7.30;;;5.87;;
13291;SDS011;6714;53.056;8.690;2022-10-17T07:45:41;7.17;;;6.47;;
13291;SDS011;6714;53.056;8.690;2022-10-17T07:48:24;6.60;;;6.00;;
13291;SDS011;6714;53.056;8.690;2022-10-17T07:51:07;7.00;;;6.20;;
13291;SDS011;6714;53.056;8.690;2022-10-17T07:53:50;6.37;;;5.70;;
13291;SDS011;6714;53.056;8.690;2022-10-17T07:56:32;6.77;;;6.07;;
13291;SDS011;6714;53.056;8.690;2022-10-17T07:59:15;6.97;;;6.37;;
13291;SDS011;6714;53.056;8.690;2022-10-17T08:01:57;7.13;;;6.43;;
13291;SDS011;6714;53.056;8.690;2022-10-17T08:04:40;7.33;;;6.73;;
13291;SDS011;6714;53.056;8.690;2022-10-17T08:07:23;5.47;;;4.97;;
13291;SDS011;6714;53.056;8.690;2022-10-17T08:10:05;6.67;;;5.40;;
13291;SDS011;6714;53.056;8.690;2022-10-17T08:12:47;7.43;;;6.07;;
13291;SDS011;6714;53.056;8.690;2022-10-17T08:15:29;8.70;;;6.77;;
13291;SDS011;6714;53.056;8.690;2022-10-17T08:18:12;9.17;;;6.60;;
13291;SDS011;6714;53.056;8.690;2022-10-17T08:20:57;7.13;;;6.27;;
13291;SDS011;6714;53.056;8.690;2022-10-17T08:23:39;7.90;;;7.10;;
13291;SDS011;6714;53.056;8.690;2022-10-17T08:26:22;7.33;;;6.40;;
13291;SDS011;6714;53.056;8.690;2022-10-17T08:29:04;6.67;;;5.97;;
13291;SDS011;6714;53.056;8.690;2022-10-17T08:31:46;7.17;;;6.07;;
13291;SDS011;6714;53.056;8.690;2022-10-17T08:34:28;6.10;;;5.50;;
13291;SDS011;6714;53.056;8.690;2022-10-17T08:37:12;5.73;;;5.23;;
13291;SDS011;6714;53.056;8.690;2022-10-17T08:39:54;5.10;;;4.70;;
13291;SDS011;6714;53.056;8.690;2022-10-17T08:42:41;4.73;;;4.33;;
13291;SDS011;6714;53.056;8.690;2022-10-17T08:45:26;5.83;;;5.33;;
13291;SDS011;6714;53.056;8.690;2022-10-17T08:48:11;5.63;;;5.13;;
13291;SDS011;6714;53.056;8.690;2022-10-17T08:50:55;5.90;;;5.40;;
13291;SDS011;6714;53.056;8.690;2022-10-17T08:53:42;8.90;;;6.47;;
13291;SDS011;6714;53.056;8.690;2022-10-17T08:56:27;7.80;;;6.57;;
13291;SDS011;6714;53.056;8.690;2022-10-17T08:59:11;5.90;;;5.27;;
13291;SDS011;6714;53.056;8.690;2022-10-17T09:01:55;8.30;;;6.57;;
13291;SDS011;6714;53.056;8.690;2022-10-17T09:04:52;6.07;;;5.47;;
13291;SDS011;6714;53.056;8.690;2022-10-17T09:07:42;8.30;;;5.50;;
13291;SDS011;6714;53.056;8.690;2022-10-17T09:10:28;6.07;;;5.50;;
13291;SDS011;6714;53.056;8.690;2022-10-17T09:13:15;5.50;;;5.00;;
13291;SDS011;6714;53.056;8.690;2022-10-17T09:16:06;5.20;;;4.20;;
13291;SDS011;6714;53.056;8.690;2022-10-17T09:18:54;4.23;;;3.83;;
13291;SDS011;6714;53.056;8.690;2022-10-17T09:21:41;5.00;;;4.50;;
13291;SDS011;6714;53.056;8.690;2022-10-17T09:24:27;4.97;;;4.47;;
13291;SDS011;6714;53.056;8.690;2022-10-17T09:27:17;7.00;;;5.10;;
13291;SDS011;6714;53.056;8.690;2022-10-17T09:30:14;6.10;;;5.40;;
13291;SDS011;6714;53.056;8.690;2022-10-17T09:32:58;12.50;;;4.80;;
13291;SDS011;6714;53.056;8.690;2022-10-17T09:35:40;4.87;;;4.47;;
13291;SDS011;6714;53.056;8.690;2022-10-17T09:38:25;5.47;;;4.53;;
13291;SDS011;6714;53.056;8.690;2022-10-17T09:41:15;7.80;;;5.23;;
13291;SDS011;6714;53.056;8.690;2022-10-17T09:43:59;5.53;;;5.03;;
13291;SDS011;6714;53.056;8.690;2022-10-17T09:46:52;6.47;;;4.67;;
13291;SDS011;6714;53.056;8.690;2022-10-17T09:49:38;4.90;;;4.40;;
13291;SDS011;6714;53.056;8.690;2022-10-17T09:52:23;3.73;;;3.43;;
13291;SDS011;6714;53.056;8.690;2022-10-17T09:55:13;5.90;;;4.10;;
13291;SDS011;6714;53.056;8.690;2022-10-17T09:57:57;5.00;;;3.90;;
13291;SDS011;6714;53.056;8.690;2022-10-17T10:00:42;5.17;;;3.50;;
13291;SDS011;6714;53.056;8.690;2022-10-17T10:03:25;4.87;;;4.10;;
13291;SDS011;6714;53.056;8.690;2022-10-17T10:06:11;6.07;;;4.23;;
13291;SDS011;6714;53.056;8.690;2022-10-17T10:08:54;4.60;;;4.17;;
13291;SDS011;6714;53.056;8.690;2022-10-17T10:11:47;4.30;;;3.87;;
13291;SDS011;6714;53.056;8.690;2022-10-17T10:14:31;6.53;;;4.07;;
13291;SDS011;6714;53.056;8.690;2022-10-17T10:17:34;4.67;;;3.90;;
13291;SDS011;6714;53.056;8.690;2022-10-17T10:20:25;4.50;;;4.10;;
13291;SDS011;6714;53.056;8.690;2022-10-17T10:23:12;4.07;;;3.70;;
13291;SDS011;6714;53.056;8.690;2022-10-17T10:25:56;4.63;;;3.90;;
13291;SDS011;6714;53.056;8.690;2022-10-17T10:28:39;6.13;;;4.30;;
13291;SDS011;6714;53.056;8.690;2022-10-17T10:31:25;4.50;;;4.10;;
13291;SDS011;6714;53.056;8.690;2022-10-17T10:34:14;4.87;;;4.23;;
13291;SDS011;6714;53.056;8.690;2022-10-17T10:36:58;4.30;;;3.90;;
13291;SDS011;6714;53.056;8.690;2022-10-17T10:39:43;4.17;;;3.77;;
13291;SDS011;6714;53.056;8.690;2022-10-17T10:42:27;7.00;;;4.23;;
13291;SDS011;6714;53.056;8.690;2022-10-17T10:45:14;4.77;;;4.37;;
13291;SDS011;6714;53.056;8.690;2022-10-17T10:47:57;4.30;;;4.00;;
13291;SDS011;6714;53.056;8.690;2022-10-17T10:50:42;4.10;;;3.70;;
13291;SDS011;6714;53.056;8.690;2022-10-17T10:53:33;5.13;;;3.40;;
13291;SDS011;6714;53.056;8.690;2022-10-17T10:56:18;6.83;;;4.20;;
13291;SDS011;6714;53.056;8.690;2022-10-17T10:59:02;5.53;;;4.70;;
13291;SDS011;6714;53.056;8.690;2022-10-17T11:01:47;4.73;;;4.30;;
13291;SDS011;6714;53.056;8.690;2022-10-17T11:04:30;4.73;;;4.27;;
13291;SDS011;6714;53.056;8.690;2022-10-17T11:07:16;3.90;;;3.60;;
13291;SDS011;6714;53.056;8.690;2022-10-17T11:10:02;4.50;;;3.73;;
13291;SDS011;6714;53.056;8.690;2022-10-17T11:12:51;4.70;;;4.30;;
13291;SDS011;6714;53.056;8.690;2022-10-17T11:15:36;5.40;;;4.10;;
13291;SDS011;6714;53.056;8.690;2022-10-17T11:18:21;5.43;;;4.10;;
13291;SDS011;6714;53.056;8.690;2022-10-17T11:21:08;4.83;;;4.37;;
13291;SDS011;6714;53.056;8.690;2022-10-17T11:23:58;6.70;;;4.70;;
13291;SDS011;6714;53.056;8.690;2022-10-17T11:26:44;6.37;;;4.60;;
13291;SDS011;6714;53.056;8.690;2022-10-17T11:29:27;9.30;;;5.27;;
13291;SDS011;6714;53.056;8.690;2022-10-17T11:32:12;4.50;;;4.07;;
13291;SDS011;6714;53.056;8.690;2022-10-17T11:34:57;6.00;;;4.50;;
13291;SDS011;6714;53.056;8.690;2022-10-17T11:37:42;5.20;;;4.60;;
13291;SDS011;6714;53.056;8.690;2022-10-17T11:40:28;6.70;;;5.00;;
13291;SDS011;6714;53.056;8.690;2022-10-17T11:43:12;6.43;;;5.07;;
13291;SDS011;6714;53.056;8.690;2022-10-17T11:45:57;6.83;;;5.63;;
13291;SDS011;6714;53.056;8.690;2022-10-17T11:48:41;5.30;;;4.80;;
13291;SDS011;6714;53.056;8.690;2022-10-17T11:51:26;7.80;;;5.57;;
13291;SDS011;6714;53.056;8.690;2022-10-17T11:54:10;6.80;;;5.10;;
13291;SDS011;6714;53.056;8.690;2022-10-17T11:56:57;6.67;;;5.43;;
13291;SDS011;6714;53.056;8.690;2022-10-17T11:59:56;5.80;;;5.30;;
13291;SDS011;6714;53.056;8.690;2022-10-17T12:02:41;6.20;;;5.60;;
13291;SDS011;6714;53.056;8.690;2022-10-17T12:05:27;6.60;;;5.83;;
13291;SDS011;6714;53.056;8.690;2022-10-17T12:08:16;6.90;;;4.83;;
13291;SDS011;6714;53.056;8.690;2022-10-17T12:11:00;5.33;;;4.80;;
13291;SDS011;6714;53.056;8.690;2022-10-17T12:13:53;4.93;;;4.43;;
13291;SDS011;6714;53.056;8.690;2022-10-17T12:16:43;5.57;;;5.07;;
13291;SDS011;6714;53.056;8.690;2022-10-17T12:19:26;8.50;;;6.30;;
13291;SDS011;6714;53.056;8.690;2022-10-17T12:22:18;5.77;;;5.17;;
13291;SDS011;6714;53.056;8.690;2022-10-17T12:25:02;5.43;;;4.70;;
13291;SDS011;6714;53.056;8.690;2022-10-17T12:27:45;7.77;;;5.70;;
13291;SDS011;6714;53.056;8.690;2022-10-17T12:30:30;7.23;;;6.20;;
13291;SDS011;6714;53.056;8.690;2022-10-17T12:33:16;7.40;;;6.17;;
13291;SDS011;6714;53.056;8.690;2022-10-17T12:41:59;9.77;;;5.90;;
13291;SDS011;6714;53.056;8.690;2022-10-17T12:44:41;7.50;;;5.67;;
13291;SDS011;6714;53.056;8.690;2022-10-17T12:47:27;6.67;;;5.77;;
13291;SDS011;6714;53.056;8.690;2022-10-17T12:53:07;6.70;;;6.17;;
13291;SDS011;6714;53.056;8.690;2022-10-17T12:55:57;7.13;;;6.10;;
13291;SDS011;6714;53.056;8.690;2022-10-17T12:58:41;8.87;;;6.00;;
13291;SDS011;6714;53.056;8.690;2022-10-17T13:01:25;5.63;;;5.20;;
13291;SDS011;6714;53.056;8.690;2022-10-17T13:04:10;5.53;;;5.07;;
13291;SDS011;6714;53.056;8.690;2022-10-17T13:06:53;6.30;;;5.37;;
13291;SDS011;6714;53.056;8.690;2022-10-17T13:09:36;7.60;;;5.73;;
13291;SDS011;6714;53.056;8.690;2022-10-17T13:12:20;5.73;;;5.07;;
13291;SDS011;6714;53.056;8.690;2022-10-17T13:15:05;9.57;;;6.00;;
13291;SDS011;6714;53.056;8.690;2022-10-17T13:17:55;6.63;;;5.63;;
13291;SDS011;6714;53.056;8.690;2022-10-17T13:20:39;7.77;;;5.80;;
13291;SDS011;6714;53.056;8.690;2022-10-17T13:23:21;6.23;;;5.60;;
13291;SDS011;6714;53.056;8.690;2022-10-17T13:26:05;7.33;;;6.23;;
13291;SDS011;6714;53.056;8.690;2022-10-17T13:28:59;8.67;;;6.03;;
13291;SDS011;6714;53.056;8.690;2022-10-17T13:31:42;6.57;;;5.90;;
13291;SDS011;6714;53.056;8.690;2022-10-17T13:34:25;6.33;;;5.73;;
13291;SDS011;6714;53.056;8.690;2022-10-17T13:37:11;6.27;;;5.67;;
13291;SDS011;6714;53.056;8.690;2022-10-17T13:39:54;8.47;;;6.00;;
13291;SDS011;6714;53.056;8.690;2022-10-17T13:42:37;8.33;;;6.80;;
13291;SDS011;6714;53.056;8.690;2022-10-17T13:45:21;7.00;;;6.30;;
13291;SDS011;6714;53.056;8.690;2022-10-17T13:48:05;6.40;;;5.40;;
13291;SDS011;6714;53.056;8.690;2022-10-17T13:50:50;7.43;;;6.60;;
13291;SDS011;6714;53.056;8.690;2022-10-17T13:53:35;6.90;;;6.20;;
13291;SDS011;6714;53.056;8.690;2022-10-17T13:56:21;7.17;;;6.57;;
13291;SDS011;6714;53.056;8.690;2022-10-17T13:59:07;7.77;;;6.70;;
13291;SDS011;6714;53.056;8.690;2022-10-17T14:01:58;7.13;;;6.30;;
13291;SDS011;6714;53.056;8.690;2022-10-17T14:04:42;8.23;;;6.03;;
13291;SDS011;6714;53.056;8.690;2022-10-17T14:07:25;6.43;;;5.33;;
13291;SDS011;6714;53.056;8.690;2022-10-17T14:10:17;6.87;;;6.20;;
13291;SDS011;6714;53.056;8.690;2022-10-17T14:13:00;5.90;;;5.40;;
13291;SDS011;6714;53.056;8.690;2022-10-17T14:15:44;6.80;;;6.20;;
13291;SDS011;6714;53.056;8.690;2022-10-17T14:18:27;7.10;;;6.50;;
13291;SDS011;6714;53.056;8.690;2022-10-17T14:21:14;6.70;;;6.00;;
13291;SDS011;6714;53.056;8.690;2022-10-17T14:24:13;6.13;;;5.53;;
13291;SDS011;6714;53.056;8.690;2022-10-17T14:26:57;5.80;;;5.17;;
13291;SDS011;6714;53.056;8.690;2022-10-17T14:29:49;7.57;;;5.73;;
13291;SDS011;6714;53.056;8.690;2022-10-17T14:32:32;7.23;;;6.47;;
13291;SDS011;6714;53.056;8.690;2022-10-17T14:35:15;6.07;;;5.47;;
13291;SDS011;6714;53.056;8.690;2022-10-17T14:37:58;6.57;;;6.07;;
13291;SDS011;6714;53.056;8.690;2022-10-17T14:40:47;6.40;;;5.80;;
13291;SDS011;6714;53.056;8.690;2022-10-17T14:43:31;6.03;;;5.53;;
13291;SDS011;6714;53.056;8.690;2022-10-17T14:46:13;5.77;;;5.30;;
13291;SDS011;6714;53.056;8.690;2022-10-17T14:49:04;6.73;;;6.03;;
13291;SDS011;6714;53.056;8.690;2022-10-17T14:54:48;8.57;;;6.30;;
13291;SDS011;6714;53.056;8.690;2022-10-17T14:57:40;5.20;;;4.80;;
13291;SDS011;6714;53.056;8.690;2022-10-17T15:00:24;6.40;;;5.43;;
13291;SDS011;6714;53.056;8.690;2022-10-17T15:03:06;6.33;;;5.73;;
13291;SDS011;6714;53.056;8.690;2022-10-17T15:05:49;6.43;;;4.87;;
13291;SDS011;6714;53.056;8.690;2022-10-17T15:08:31;4.70;;;4.30;;
13291;SDS011;6714;53.056;8.690;2022-10-17T15:11:13;5.63;;;5.13;;
13291;SDS011;6714;53.056;8.690;2022-10-17T15:13:56;4.97;;;4.57;;
13291;SDS011;6714;53.056;8.690;2022-10-17T15:16:39;5.50;;;4.33;;
13291;SDS011;6714;53.056;8.690;2022-10-17T15:19:21;4.93;;;4.40;;
13291;SDS011;6714;53.056;8.690;2022-10-17T15:22:03;4.90;;;4.23;;
13291;SDS011;6714;53.056;8.690;2022-10-17T15:24:46;4.97;;;4.57;;
13291;SDS011;6714;53.056;8.690;2022-10-17T15:27:28;6.00;;;4.43;;
13291;SDS011;6714;53.056;8.690;2022-10-17T15:30:14;4.30;;;3.90;;
13291;SDS011;6714;53.056;8.690;2022-10-17T15:32:59;4.80;;;4.13;;
13291;SDS011;6714;53.056;8.690;2022-10-17T15:35:42;4.60;;;4.10;;
13291;SDS011;6714;53.056;8.690;2022-10-17T15:38:24;4.70;;;4.20;;
13291;SDS011;6714;53.056;8.690;2022-10-17T15:41:07;5.10;;;4.70;;
13291;SDS011;6714;53.056;8.690;2022-10-17T15:43:50;5.20;;;4.77;;
13291;SDS011;6714;53.056;8.690;2022-10-17T15:46:33;5.30;;;4.70;;
13291;SDS011;6714;53.056;8.690;2022-10-17T15:49:17;4.43;;;4.03;;
13291;SDS011;6714;53.056;8.690;2022-10-17T15:51:59;4.70;;;4.30;;
13291;SDS011;6714;53.056;8.690;2022-10-17T15:54:42;5.53;;;4.33;;
13291;SDS011;6714;53.056;8.690;2022-10-17T15:57:25;6.47;;;4.60;;
13291;SDS011;6714;53.056;8.690;2022-10-17T16:00:12;5.10;;;4.60;;
13291;SDS011;6714;53.056;8.690;2022-10-17T16:02:55;5.60;;;5.10;;
13291;SDS011;6714;53.056;8.690;2022-10-17T16:05:39;5.00;;;3.93;;
13291;SDS011;6714;53.056;8.690;2022-10-17T16:08:21;5.57;;;5.07;;
13291;SDS011;6714;53.056;8.690;2022-10-17T16:11:03;5.33;;;4.87;;
13291;SDS011;6714;53.056;8.690;2022-10-17T16:13:48;4.30;;;3.93;;
13291;SDS011;6714;53.056;8.690;2022-10-17T16:16:31;6.13;;;5.07;;
13291;SDS011;6714;53.056;8.690;2022-10-17T16:19:14;5.63;;;5.00;;
13291;SDS011;6714;53.056;8.690;2022-10-17T16:21:57;5.33;;;4.80;;
13291;SDS011;6714;53.056;8.690;2022-10-17T16:24:41;5.40;;;4.90;;
13291;SDS011;6714;53.056;8.690;2022-10-17T16:27:23;5.13;;;4.63;;
13291;SDS011;6714;53.056;8.690;2022-10-17T16:30:06;5.50;;;5.00;;
13291;SDS011;6714;53.056;8.690;2022-10-17T16:32:49;5.83;;;5.23;;
13291;SDS011;6714;53.056;8.690;2022-10-17T16:35:31;5.67;;;4.87;;
13291;SDS011;6714;53.056;8.690;2022-10-17T16:38:15;6.50;;;5.37;;
13291;SDS011;6714;53.056;8.690;2022-10-17T16:40:57;5.73;;;5.13;;
13291;SDS011;6714;53.056;8.690;2022-10-17T16:43:39;6.37;;;5.60;;
13291;SDS011;6714;53.056;8.690;2022-10-17T16:46:22;7.07;;;5.60;;
13291;SDS011;6714;53.056;8.690;2022-10-17T16:49:05;5.80;;;5.20;;
13291;SDS011;6714;53.056;8.690;2022-10-17T16:51:47;6.10;;;5.50;;
13291;SDS011;6714;53.056;8.690;2022-10-17T16:54:30;6.20;;;5.60;;
13291;SDS011;6714;53.056;8.690;2022-10-17T16:57:14;7.83;;;6.00;;
13291;SDS011;6714;53.056;8.690;2022-10-17T16:59:56;5.87;;;5.37;;
13291;SDS011;6714;53.056;8.690;2022-10-17T17:02:38;6.27;;;5.67;;